createdAt,value
2023-03-28T00:02:12.298Z,16.33
2023-03-28T00:05:13.725Z,16.33
2023-03-28T00:08:16.083Z,16.33
2023-03-28T00:11:19.969Z,16.29
2023-03-28T00:14:21.842Z,16.28
2023-03-28T00:17:24.607Z,16.28
2023-03-28T00:20:26.068Z,16.26
2023-03-28T00:23:28.904Z,16.24
2023-03-28T00:26:32.377Z,16.22
2023-03-28T00:29:34.195Z,16.20
2023-03-28T00:32:36.148Z,16.19
2023-03-28T00:35:37.614Z,16.17
2023-03-28T00:38:39.196Z,16.15
2023-03-28T00:41:42.346Z,16.15
2023-03-28T00:44:43.946Z,16.13
2023-03-28T00:47:49.446Z,16.12
2023-03-28T00:50:51.334Z,16.10
2023-03-28T00:53:57.821Z,16.10
2023-03-28T00:57:01.225Z,16.09
2023-03-28T01:00:02.916Z,16.07
2023-03-28T01:03:06.692Z,16.05
2023-03-28T01:06:09.081Z,16.05
2023-03-28T01:09:14.301Z,16.03
2023-03-28T01:12:22.377Z,16.00
2023-03-28T01:15:23.813Z,16.00
2023-03-28T01:18:34.498Z,15.99
2023-03-28T01:21:35.862Z,15.99
2023-03-28T01:24:52.476Z,15.98
2023-03-28T01:28:13.558Z,15.98
2023-03-28T01:31:43.483Z,15.98
2023-03-28T01:35:29.450Z,15.98
2023-03-28T01:38:44.726Z,15.99
2023-03-28T01:41:50.250Z,15.98
2023-03-28T01:45:01.777Z,15.98
2023-03-28T01:48:21.819Z,15.98
2023-03-28T01:51:26.221Z,16.00
2023-03-28T01:54:31.316Z,15.98
2023-03-28T01:57:37.844Z,15.98
2023-03-28T02:00:43.239Z,15.97
2023-03-28T02:03:49.646Z,15.95
2023-03-28T02:07:09.173Z,15.95
2023-03-28T02:10:20.221Z,15.94
2023-03-28T02:13:51.008Z,15.92
2023-03-28T02:17:16.397Z,15.91
2023-03-28T02:20:38.422Z,15.92
2023-03-28T02:24:03.048Z,15.90
2023-03-28T02:27:32.147Z,15.90
2023-03-28T02:30:45.532Z,15.88
2023-03-28T02:33:48.409Z,15.87
2023-03-28T02:37:08.300Z,15.86
2023-03-28T02:40:13.644Z,15.86
2023-03-28T02:43:29.350Z,15.86
2023-03-28T02:46:34.042Z,15.84
2023-03-28T02:49:51.035Z,15.85
2023-03-28T02:53:12.504Z,15.85
2023-03-28T02:56:20.027Z,15.84
2023-03-28T02:59:42.459Z,15.83
2023-03-28T03:02:45.447Z,15.81
2023-03-28T03:05:47.348Z,15.81
2023-03-28T03:08:48.757Z,15.83
2023-03-28T03:11:50.292Z,15.84
2023-03-28T03:14:51.739Z,15.88
2023-03-28T03:18:19.214Z,15.90
2023-03-28T03:21:21.841Z,15.92
2023-03-28T03:24:25.100Z,15.94
2023-03-28T03:27:26.643Z,15.95
2023-03-28T03:30:28.048Z,15.97
2023-03-28T03:33:55.503Z,15.99
2023-03-28T03:37:02.392Z,16.02
2023-03-28T03:40:05.703Z,16.03
2023-03-28T03:43:10.485Z,16.05
2023-03-28T03:46:14.143Z,16.07
2023-03-28T03:49:15.766Z,16.09
2023-03-28T03:52:17.667Z,16.10
2023-03-28T03:55:20.646Z,16.12
2023-03-28T03:58:22.432Z,16.13
2023-03-28T04:01:25.871Z,16.14
2023-03-28T04:04:29.106Z,16.14
2023-03-28T04:07:45.308Z,16.14
2023-03-28T04:10:57.294Z,16.14
2023-03-28T04:13:59.017Z,16.14
2023-03-28T04:17:01.789Z,16.13
2023-03-28T04:20:11.465Z,16.11
2023-03-28T04:23:29.241Z,16.08
2023-03-28T04:26:35.626Z,16.07
2023-03-28T04:29:41.681Z,16.06
2023-03-28T04:33:18.184Z,16.03
2023-03-28T04:36:22.597Z,16.02
2023-03-28T04:39:35.558Z,16.00
2023-03-28T04:43:02.839Z,15.98
2023-03-28T04:46:09.875Z,15.95
2023-03-28T04:49:11.967Z,15.94
2023-03-28T04:52:13.801Z,15.94
2023-03-28T04:55:17.846Z,15.95
2023-03-28T04:58:22.714Z,15.96
2023-03-28T05:01:27.084Z,15.96
2023-03-28T05:04:54.044Z,16.00
2023-03-28T05:07:55.593Z,16.00
2023-03-28T05:10:58.599Z,16.03
2023-03-28T05:14:01.630Z,16.06
2023-03-28T05:17:10.337Z,16.08
2023-03-28T05:20:11.966Z,16.09
2023-03-28T05:23:23.615Z,16.12
2023-03-28T05:26:28.073Z,16.14
2023-03-28T05:29:29.510Z,16.15
2023-03-28T05:32:31.205Z,16.16
2023-03-28T05:35:32.803Z,16.17
2023-03-28T05:38:34.344Z,16.18
2023-03-28T05:41:42.757Z,16.19
2023-03-28T05:44:44.165Z,16.19
2023-03-28T05:48:23.826Z,16.19
2023-03-28T05:51:25.449Z,16.18
2023-03-28T05:54:28.016Z,16.16
2023-03-28T05:57:29.686Z,16.16
2023-03-28T06:00:31.219Z,16.14
2023-03-28T06:03:32.761Z,16.13
2023-03-28T06:06:41.183Z,16.11
2023-03-28T06:09:43.047Z,16.12
2023-03-28T06:12:45.864Z,16.10
2023-03-28T06:15:47.573Z,16.08
2023-03-28T06:18:49.764Z,16.06
2023-03-28T06:21:51.449Z,16.04
2023-03-28T06:24:53.190Z,16.03
2023-03-28T06:28:01.008Z,16.00
2023-03-28T06:31:03.636Z,15.98
2023-03-28T06:34:05.628Z,15.95
2023-03-28T06:37:08.447Z,15.97
2023-03-28T06:40:35.921Z,15.96
2023-03-28T06:43:37.298Z,15.94
2023-03-28T06:46:42.692Z,15.92
2023-03-28T06:49:46.522Z,15.91
2023-03-28T06:53:06.994Z,15.89
2023-03-28T06:56:08.756Z,15.88
2023-03-28T06:59:11.000Z,15.86
2023-03-28T07:02:13.203Z,15.83
2023-03-28T07:05:16.085Z,15.82
2023-03-28T07:08:20.613Z,15.79
2023-03-28T07:11:22.200Z,15.79
2023-03-28T07:14:25.236Z,15.78
2023-03-28T07:17:26.756Z,15.76
2023-03-28T07:20:28.302Z,15.76
2023-03-28T07:23:30.475Z,15.73
2023-03-28T07:26:31.929Z,15.72
2023-03-28T07:29:33.444Z,15.70
2023-03-28T07:32:43.372Z,15.69
2023-03-28T07:35:49.083Z,15.66
2023-03-28T07:38:50.537Z,15.66
2023-03-28T07:41:53.282Z,15.66
2023-03-28T07:44:54.833Z,15.64
2023-03-28T07:47:56.323Z,15.64
2023-03-28T07:50:58.097Z,15.64
2023-03-28T07:53:59.596Z,15.62
2023-03-28T07:57:01.828Z,15.62
2023-03-28T08:00:24.033Z,15.63
2023-03-28T08:03:45.930Z,15.64
2023-03-28T08:06:49.015Z,15.65
2023-03-28T08:09:50.993Z,15.66
2023-03-28T08:12:58.874Z,15.67
2023-03-28T08:16:00.398Z,15.66
2023-03-28T08:19:10.569Z,15.66
2023-03-28T08:22:28.509Z,15.66
2023-03-28T08:25:40.967Z,15.64
2023-03-28T08:28:42.501Z,15.63
2023-03-28T08:31:44.162Z,15.63
2023-03-28T08:34:48.124Z,15.64
2023-03-28T08:37:52.545Z,15.63
2023-03-28T08:40:58.867Z,15.62
2023-03-28T08:44:01.587Z,15.62
2023-03-28T08:47:06.078Z,15.62
2023-03-28T08:50:13.582Z,15.59
2023-03-28T08:53:21.751Z,15.60
2023-03-28T08:56:23.676Z,15.61
2023-03-28T08:59:39.634Z,15.59
2023-03-28T09:02:42.210Z,15.59
2023-03-28T09:05:43.686Z,15.60
2023-03-28T09:08:58.947Z,15.61
2023-03-28T09:12:07.156Z,15.60
2023-03-28T09:15:27.597Z,15.60
2023-03-28T09:18:30.763Z,15.60
2023-03-28T09:21:45.263Z,15.58
2023-03-28T09:24:48.113Z,15.57
2023-03-28T09:27:51.199Z,15.58
2023-03-28T09:30:56.081Z,15.57
2023-03-28T09:33:59.972Z,15.55
2023-03-28T09:37:29.934Z,15.54
2023-03-28T09:40:35.518Z,15.55
2023-03-28T09:44:13.742Z,15.56
2023-03-28T09:47:15.098Z,15.57
2023-03-28T09:50:22.093Z,15.60
2023-03-28T09:53:34.000Z,15.62
2023-03-28T09:56:40.849Z,15.63
2023-03-28T10:00:20.384Z,15.65
2023-03-28T10:03:34.686Z,15.65
2023-03-28T10:06:40.533Z,15.65
2023-03-28T10:09:56.885Z,15.66
2023-03-28T10:13:02.553Z,15.67
2023-03-28T10:16:04.959Z,15.67
2023-03-28T10:19:31.560Z,15.67
2023-03-28T10:22:39.822Z,15.66
2023-03-28T10:25:45.922Z,15.65
2023-03-28T10:28:49.280Z,15.43
2023-03-28T10:31:50.888Z,15.09
2023-03-28T10:35:16.020Z,14.76
2023-03-28T10:38:23.788Z,14.35
2023-03-28T10:41:58.683Z,14.14
2023-03-28T10:45:41.660Z,14.17
2023-03-28T10:49:04.823Z,14.31
2023-03-28T10:52:21.897Z,14.51
2023-03-28T10:55:31.513Z,14.67
2023-03-28T10:58:57.159Z,14.82
2023-03-28T11:02:22.464Z,14.98
2023-03-28T11:05:34.634Z,15.11
2023-03-28T11:08:46.130Z,15.19
2023-03-28T11:11:53.607Z,15.28
2023-03-28T11:14:55.230Z,15.35
2023-03-28T11:17:57.740Z,15.41
2023-03-28T11:21:02.290Z,15.47
2023-03-28T11:24:09.831Z,15.51
2023-03-28T11:27:39.422Z,15.54
2023-03-28T11:30:50.624Z,15.56
2023-03-28T11:34:00.609Z,15.58
2023-03-28T11:37:07.443Z,15.59
2023-03-28T11:40:20.170Z,15.61
2023-03-28T11:43:37.136Z,15.63
2023-03-28T11:46:51.189Z,15.62
2023-03-28T11:49:57.849Z,15.62
2023-03-28T11:53:31.219Z,15.62
2023-03-28T11:56:40.470Z,15.62
2023-03-28T11:59:54.220Z,15.63
2023-03-28T12:02:56.523Z,15.61
2023-03-28T12:06:18.727Z,15.59
2023-03-28T12:09:27.353Z,15.58
2023-03-28T12:12:31.385Z,15.58
2023-03-28T12:15:43.416Z,15.58
2023-03-28T12:18:57.551Z,15.58
2023-03-28T12:22:32.331Z,15.58
2023-03-28T12:25:35.203Z,15.57
2023-03-28T12:28:43.659Z,15.57
2023-03-28T12:31:52.340Z,15.57
2023-03-28T12:35:06.710Z,15.56
2023-03-28T12:38:42.526Z,15.54
2023-03-28T12:41:55.268Z,15.53
2023-03-28T12:45:00.231Z,15.52
2023-03-28T12:48:08.940Z,15.51
2023-03-28T12:51:17.799Z,15.50
2023-03-28T12:54:28.487Z,15.47
2023-03-28T12:57:45.736Z,15.47
2023-03-28T13:01:32.713Z,15.46
2023-03-28T13:05:16.243Z,15.45
2023-03-28T13:08:36.568Z,15.43
2023-03-28T13:11:49.436Z,15.43
2023-03-28T13:14:58.030Z,15.43
2023-03-28T13:18:17.737Z,15.41
2023-03-28T13:21:37.774Z,15.41
2023-03-28T13:24:39.798Z,15.41
2023-03-28T13:27:41.353Z,15.39
2023-03-28T13:30:43.824Z,15.37
2023-03-28T13:33:47.049Z,15.37
2023-03-28T13:36:54.765Z,15.36
2023-03-28T13:39:59.684Z,15.36
2023-03-28T13:43:01.209Z,15.34
2023-03-28T13:46:11.449Z,15.34
2023-03-28T13:49:28.204Z,15.34
2023-03-28T13:52:29.635Z,15.33
2023-03-28T13:55:31.102Z,15.33
2023-03-28T13:58:32.544Z,15.35
2023-03-28T14:01:35.468Z,15.34
2023-03-28T14:04:37.566Z,15.35
2023-03-28T14:07:39.507Z,15.37
2023-03-28T14:10:42.161Z,15.37
2023-03-28T14:13:43.955Z,15.37
2023-03-28T14:16:46.022Z,15.37
2023-03-28T14:19:53.538Z,15.38
2023-03-28T14:23:00.258Z,15.37
2023-03-28T14:26:04.603Z,15.37
2023-03-28T14:29:10.803Z,15.36
2023-03-28T14:32:24.362Z,15.36
2023-03-28T14:35:27.751Z,15.36
2023-03-28T14:38:30.533Z,15.35
2023-03-28T14:41:35.009Z,15.33
2023-03-28T14:44:37.579Z,15.34
2023-03-28T14:47:40.178Z,15.37
2023-03-28T14:50:41.997Z,15.38
2023-03-28T14:53:45.760Z,15.41
2023-03-28T14:56:47.835Z,15.43
2023-03-28T14:59:49.947Z,15.46
2023-03-28T15:02:52.282Z,15.48
2023-03-28T15:05:56.708Z,15.50
2023-03-28T15:08:59.020Z,15.53
2023-03-28T15:12:04.281Z,15.55
2023-03-28T15:15:06.518Z,15.60
2023-03-28T15:18:11.715Z,15.61
2023-03-28T15:21:13.724Z,15.60
2023-03-28T15:24:17.507Z,15.57
2023-03-28T15:27:28.390Z,15.56
2023-03-28T15:30:32.908Z,15.60
2023-03-28T15:33:34.394Z,15.58
2023-03-28T15:36:35.838Z,15.59
2023-03-28T15:39:37.477Z,15.58
2023-03-28T15:42:39.461Z,15.57
2023-03-28T15:45:42.464Z,15.56
2023-03-28T15:48:43.898Z,15.53
2023-03-28T15:51:50.750Z,15.48
2023-03-28T15:54:52.671Z,15.44
2023-03-28T15:57:55.154Z,15.37
2023-03-28T16:00:56.536Z,15.34
2023-03-28T16:04:10.176Z,15.24
2023-03-28T16:07:12.369Z,15.19
2023-03-28T16:10:17.991Z,15.19
2023-03-28T16:13:46.069Z,15.14
2023-03-28T16:17:09.824Z,15.07
2023-03-28T16:20:25.512Z,15.05
2023-03-28T16:23:30.673Z,15.07
2023-03-28T16:26:33.482Z,15.03
2023-03-28T16:29:34.945Z,14.95
2023-03-28T16:32:36.591Z,14.91
2023-03-28T16:35:38.103Z,14.89
2023-03-28T16:38:39.668Z,14.86
2023-03-28T16:41:41.183Z,14.84
2023-03-28T16:44:42.575Z,14.85
2023-03-28T16:47:43.989Z,14.88
2023-03-28T16:50:49.355Z,14.93
2023-03-28T16:53:50.963Z,14.98
2023-03-28T16:56:53.002Z,15.04
2023-03-28T16:59:54.559Z,15.11
2023-03-28T17:02:56.210Z,15.15
2023-03-28T17:06:04.779Z,15.19
2023-03-28T17:09:06.666Z,15.21
2023-03-28T17:12:08.040Z,15.25
2023-03-28T17:15:09.681Z,15.28
2023-03-28T17:18:11.192Z,15.31
2023-03-28T17:21:13.491Z,15.34
2023-03-28T17:24:14.853Z,15.37
2023-03-28T17:27:16.358Z,15.40
2023-03-28T17:30:17.841Z,15.45
2023-03-28T17:33:19.687Z,15.48
2023-03-28T17:36:21.906Z,15.52
2023-03-28T17:39:23.883Z,15.56
2023-03-28T17:42:25.323Z,15.58
2023-03-28T17:45:26.716Z,15.63
2023-03-28T17:48:28.177Z,15.65
2023-03-28T17:51:29.671Z,15.68
2023-03-28T17:54:31.085Z,15.71
2023-03-28T17:57:32.697Z,15.74
2023-03-28T18:00:34.149Z,15.77
2023-03-28T18:03:35.661Z,15.79
2023-03-28T18:06:56.991Z,15.81
2023-03-28T18:10:00.722Z,15.83
2023-03-28T18:13:02.361Z,15.83
2023-03-28T18:16:05.404Z,15.85
2023-03-28T18:19:08.147Z,15.84
2023-03-28T18:22:09.612Z,15.85
2023-03-28T18:25:11.178Z,15.85
2023-03-28T18:28:12.563Z,15.85
2023-03-28T18:31:15.367Z,15.85
2023-03-28T18:34:16.752Z,15.86
2023-03-28T18:37:18.165Z,15.86
2023-03-28T18:40:19.647Z,15.87
2023-03-28T18:43:21.483Z,15.88
2023-03-28T18:46:25.967Z,15.87
2023-03-28T18:49:28.507Z,15.88
2023-03-28T18:52:30.341Z,15.88
2023-03-28T18:55:31.744Z,15.88
2023-03-28T18:58:33.616Z,15.89
2023-03-28T19:01:35.688Z,15.89
2023-03-28T19:04:37.633Z,15.89
2023-03-28T19:07:39.031Z,15.90
2023-03-28T19:10:44.870Z,15.91
2023-03-28T19:13:46.253Z,15.91
2023-03-28T19:16:47.674Z,15.91
2023-03-28T19:19:49.131Z,15.91
2023-03-28T19:22:50.532Z,15.91
2023-03-28T19:25:52.480Z,15.92
2023-03-28T19:28:53.853Z,15.94
2023-03-28T19:31:55.501Z,15.94
2023-03-28T19:34:57.234Z,15.95
2023-03-28T19:37:59.209Z,15.95
2023-03-28T19:41:01.687Z,15.96
2023-03-28T19:44:03.050Z,15.97
2023-03-28T19:47:04.522Z,15.98
2023-03-28T19:50:06.618Z,15.97
2023-03-28T19:53:08.009Z,15.98
2023-03-28T19:56:11.777Z,15.97
2023-03-28T19:59:13.234Z,15.99
2023-03-28T20:02:14.749Z,15.99
2023-03-28T20:05:16.220Z,15.99
2023-03-28T20:08:18.967Z,16.00
2023-03-28T20:11:20.447Z,16.00
2023-03-28T20:14:21.885Z,16.01
2023-03-28T20:17:23.400Z,16.00
2023-03-28T20:20:24.904Z,16.01
2023-03-28T20:23:26.985Z,16.01
2023-03-28T20:26:28.391Z,16.02
2023-03-28T20:29:29.954Z,16.02
2023-03-28T20:32:31.357Z,16.02
2023-03-28T20:35:32.909Z,16.02
2023-03-28T20:38:34.375Z,16.03
2023-03-28T20:41:35.805Z,16.02
2023-03-28T20:44:40.383Z,16.04
2023-03-28T20:47:42.812Z,16.05
2023-03-28T20:50:46.126Z,16.04
2023-03-28T20:53:49.586Z,16.04
2023-03-28T20:56:51.298Z,16.03
2023-03-28T20:59:55.142Z,16.03
2023-03-28T21:02:56.593Z,16.02
2023-03-28T21:05:58.034Z,16.02
2023-03-28T21:09:00.846Z,16.03
2023-03-28T21:12:02.251Z,16.04
2023-03-28T21:15:03.813Z,16.03
2023-03-28T21:18:06.849Z,16.02
2023-03-28T21:21:08.918Z,16.02
2023-03-28T21:24:10.398Z,16.03
2023-03-28T21:27:12.283Z,16.02
2023-03-28T21:30:13.858Z,16.03
2023-03-28T21:33:16.852Z,16.03
2023-03-28T21:36:19.468Z,16.04
2023-03-28T21:39:20.929Z,16.04
2023-03-28T21:42:22.352Z,16.04
2023-03-28T21:45:23.774Z,16.04
2023-03-28T21:48:25.241Z,16.04
2023-03-28T21:51:26.927Z,16.03
2023-03-28T21:54:28.385Z,16.04
2023-03-28T21:57:29.914Z,16.03
2023-03-28T22:00:31.408Z,16.03
2023-03-28T22:03:35.145Z,16.02
2023-03-28T22:06:36.632Z,16.02
2023-03-28T22:09:39.165Z,16.02
2023-03-28T22:12:44.791Z,16.02
2023-03-28T22:15:46.370Z,16.01
2023-03-28T22:18:49.672Z,16.00
2023-03-28T22:21:51.460Z,16.00
2023-03-28T22:24:52.837Z,15.99
2023-03-28T22:27:54.598Z,15.98
2023-03-28T22:30:56.758Z,15.96
2023-03-28T22:33:58.433Z,15.95
2023-03-28T22:36:59.829Z,15.95
2023-03-28T22:40:01.197Z,15.92
2023-03-28T22:43:03.223Z,15.91
2023-03-28T22:46:05.595Z,15.89
2023-03-28T22:49:09.092Z,15.87
2023-03-28T22:52:10.649Z,15.85
2023-03-28T22:55:13.786Z,15.83
2023-03-28T22:58:16.187Z,15.83
2023-03-28T23:01:17.643Z,15.81
2023-03-28T23:04:19.259Z,15.80
2023-03-28T23:07:21.506Z,15.79
2023-03-28T23:10:23.087Z,15.77
2023-03-28T23:13:24.565Z,15.76
2023-03-28T23:16:26.325Z,15.76
2023-03-28T23:19:29.846Z,15.73
2023-03-28T23:22:31.602Z,15.71
2023-03-28T23:25:33.035Z,15.71
2023-03-28T23:28:34.535Z,15.70
2023-03-28T23:31:36.006Z,15.69
2023-03-28T23:34:37.427Z,15.69
2023-03-28T23:37:38.921Z,15.66
2023-03-28T23:40:41.296Z,15.66
2023-03-28T23:43:42.679Z,15.65
2023-03-28T23:46:44.088Z,15.64
2023-03-28T23:49:46.400Z,15.62
2023-03-28T23:52:47.797Z,15.61
2023-03-28T23:55:49.240Z,15.61
2023-03-28T23:58:51.345Z,15.60
